createdAt,value
2022-08-26T00:04:38.126Z,17.22
2022-08-26T00:09:41.194Z,17.04
2022-08-26T00:14:50.712Z,17.08
2022-08-26T00:19:53.938Z,16.91
2022-08-26T00:24:57.348Z,16.77
2022-08-26T00:30:01.737Z,16.61
2022-08-26T00:35:06.748Z,16.46
2022-08-26T00:40:17.056Z,16.33
2022-08-26T00:45:20.645Z,16.27
2022-08-26T00:50:38.741Z,16.21
2022-08-26T00:55:42.127Z,16.15
2022-08-26T01:00:46.618Z,16.09
2022-08-26T01:05:51.416Z,16.13
2022-08-26T01:10:57.913Z,16.10
2022-08-26T01:16:04.787Z,16.11
2022-08-26T01:21:22.504Z,16.12
2022-08-26T01:26:31.087Z,16.23
2022-08-26T01:31:42.635Z,16.21
2022-08-26T01:36:51.188Z,16.09
2022-08-26T01:41:58.176Z,16.10
2022-08-26T01:47:07.984Z,16.09
2022-08-26T01:52:14.980Z,16.16
2022-08-26T01:57:20.602Z,16.36
2022-08-26T02:02:24.632Z,16.39
2022-08-26T02:07:29.572Z,16.46
2022-08-26T02:12:33.887Z,16.35
2022-08-26T02:17:44.488Z,16.23
2022-08-26T02:22:48.662Z,16.20
2022-08-26T02:27:53.448Z,16.08
2022-08-26T02:33:00.133Z,16.07
2022-08-26T02:38:03.765Z,16.03
2022-08-26T02:43:14.099Z,15.90
2022-08-26T02:48:19.995Z,15.78
2022-08-26T02:53:25.371Z,15.75
2022-08-26T02:58:28.833Z,15.69
2022-08-26T03:03:33.129Z,15.54
2022-08-26T03:08:36.104Z,15.52
2022-08-26T03:13:40.461Z,15.54
2022-08-26T03:18:43.798Z,15.55
2022-08-26T03:23:58.700Z,15.43
2022-08-26T03:29:20.324Z,15.61
2022-08-26T03:34:24.405Z,15.62
2022-08-26T03:39:31.630Z,15.48
2022-08-26T03:44:37.504Z,15.54
2022-08-26T03:49:45.062Z,15.44
2022-08-26T03:54:48.642Z,15.43
2022-08-26T03:59:52.161Z,15.38
2022-08-26T04:04:55.224Z,15.40
2022-08-26T04:09:59.319Z,15.47
2022-08-26T04:15:02.376Z,15.46
2022-08-26T04:20:07.682Z,15.38
2022-08-26T04:25:13.051Z,15.35
2022-08-26T04:30:17.186Z,15.32
2022-08-26T04:35:25.743Z,15.19
2022-08-26T04:40:30.157Z,15.26
2022-08-26T04:45:37.672Z,15.23
2022-08-26T04:50:41.794Z,15.42
2022-08-26T04:55:46.478Z,15.52
2022-08-26T05:00:54.265Z,15.68
2022-08-26T05:05:57.442Z,15.87
2022-08-26T05:11:05.249Z,16.05
2022-08-26T05:16:12.515Z,16.31
2022-08-26T05:21:25.041Z,16.50
2022-08-26T05:26:31.976Z,16.96
2022-08-26T05:31:36.449Z,17.37
2022-08-26T05:36:40.415Z,17.80
2022-08-26T05:41:44.792Z,18.57
2022-08-26T05:46:47.991Z,19.04
2022-08-26T05:51:54.507Z,19.25
2022-08-26T05:56:57.548Z,19.61
2022-08-26T06:02:02.740Z,19.99
2022-08-26T06:07:06.231Z,20.33
2022-08-26T06:12:13.882Z,20.79
2022-08-26T06:17:18.685Z,21.16
2022-08-26T06:22:40.671Z,22.52
2022-08-26T06:27:43.744Z,25.98
2022-08-26T06:32:46.948Z,26.82
2022-08-26T06:37:50.374Z,27.37
2022-08-26T06:42:53.661Z,28.01
2022-08-26T06:47:57.903Z,28.26
2022-08-26T06:53:00.985Z,28.37
2022-08-26T06:58:04.074Z,27.38
2022-08-26T07:03:08.617Z,26.98
2022-08-26T07:08:12.337Z,26.84
2022-08-26T07:13:15.669Z,25.59
2022-08-26T07:18:19.188Z,25.18
2022-08-26T07:23:26.000Z,24.49
2022-08-26T07:28:30.022Z,24.21
2022-08-26T07:33:33.252Z,24.69
2022-08-26T07:38:38.171Z,25.60
2022-08-26T07:43:41.293Z,26.84
2022-08-26T07:48:47.678Z,26.55
2022-08-26T07:53:52.710Z,25.75
2022-08-26T07:58:56.438Z,26.02
2022-08-26T08:04:01.307Z,27.05
2022-08-26T08:09:06.254Z,28.04
2022-08-26T08:14:11.640Z,28.83
2022-08-26T08:19:15.934Z,28.87
2022-08-26T08:24:19.744Z,28.79
2022-08-26T08:29:25.263Z,29.89
2022-08-26T08:34:30.252Z,30.12
2022-08-26T08:39:34.126Z,29.13
2022-08-26T08:44:42.265Z,29.79
2022-08-26T08:49:45.715Z,29.04
2022-08-26T08:54:49.120Z,29.58
2022-08-26T09:00:04.690Z,30.53
2022-08-26T09:05:17.633Z,30.45
2022-08-26T09:10:45.084Z,30.41
2022-08-26T09:16:10.115Z,31.06
2022-08-26T09:21:14.918Z,30.56
2022-08-26T09:26:17.964Z,31.50
2022-08-26T09:31:25.565Z,31.20
2022-08-26T09:36:41.124Z,31.29
2022-08-26T09:41:45.411Z,30.17
2022-08-26T09:47:09.137Z,29.73
2022-08-26T09:52:27.769Z,30.60
2022-08-26T09:57:44.479Z,31.62
2022-08-26T10:02:51.162Z,31.27
2022-08-26T10:07:57.762Z,30.55
2022-08-26T10:13:25.991Z,28.75
2022-08-26T10:18:36.558Z,28.27
2022-08-26T10:23:48.848Z,26.92
2022-08-26T10:28:58.461Z,26.64
2022-08-26T10:34:02.735Z,26.02
2022-08-26T10:39:13.119Z,25.96
2022-08-26T10:44:18.763Z,25.83
2022-08-26T10:49:21.823Z,25.54
2022-08-26T10:54:30.961Z,25.38
2022-08-26T11:00:29.417Z,24.74
2022-08-26T11:05:35.251Z,24.18
2022-08-26T11:11:00.792Z,24.29
2022-08-26T11:16:03.835Z,24.24
2022-08-26T11:21:44.536Z,24.46
2022-08-26T11:26:56.231Z,24.91
2022-08-26T11:31:59.865Z,25.74
2022-08-26T11:37:12.786Z,27.03
2022-08-26T11:42:41.680Z,27.95
2022-08-26T11:47:47.479Z,28.35
2022-08-26T11:53:07.773Z,29.30
2022-08-26T11:58:13.596Z,29.39
2022-08-26T12:03:39.912Z,29.27
2022-08-26T12:08:45.601Z,29.61
2022-08-26T12:14:17.502Z,30.57
2022-08-26T12:19:32.971Z,30.89
2022-08-26T12:24:42.500Z,31.04
2022-08-26T12:29:48.533Z,30.92
2022-08-26T12:34:52.065Z,30.59
2022-08-26T12:39:55.189Z,29.91
2022-08-26T12:45:02.209Z,29.21
2022-08-26T12:50:07.774Z,28.65
2022-08-26T12:55:25.189Z,28.20
2022-08-26T13:00:39.579Z,28.24
2022-08-26T13:05:42.859Z,28.15
2022-08-26T13:10:48.018Z,28.46
2022-08-26T13:15:51.087Z,28.25
2022-08-26T13:20:54.654Z,27.98
2022-08-26T13:25:59.059Z,27.37
2022-08-26T13:31:02.959Z,26.75
2022-08-26T13:36:07.238Z,26.11
2022-08-26T13:41:10.698Z,25.47
2022-08-26T13:46:17.831Z,25.06
2022-08-26T13:51:22.943Z,24.84
2022-08-26T13:56:29.886Z,24.56
2022-08-26T14:01:34.053Z,24.23
2022-08-26T14:06:38.048Z,23.95
2022-08-26T14:11:50.892Z,23.93
2022-08-26T14:16:59.762Z,23.72
2022-08-26T14:22:04.837Z,23.49
2022-08-26T14:27:07.923Z,23.21
2022-08-26T14:32:21.382Z,23.12
2022-08-26T14:37:25.930Z,22.98
2022-08-26T14:42:31.326Z,22.80
2022-08-26T14:47:34.695Z,22.73
2022-08-26T14:52:58.662Z,22.56
2022-08-26T14:58:03.132Z,22.55
2022-08-26T15:03:06.878Z,22.46
2022-08-26T15:08:11.155Z,22.50
2022-08-26T15:13:15.238Z,22.40
2022-08-26T15:18:19.120Z,22.36
2022-08-26T15:23:22.607Z,22.50
2022-08-26T15:28:26.041Z,22.63
2022-08-26T15:33:29.024Z,22.70
2022-08-26T15:38:36.071Z,22.71
2022-08-26T15:43:39.772Z,22.75
2022-08-26T15:48:43.182Z,22.61
2022-08-26T15:53:47.265Z,22.57
2022-08-26T15:58:50.778Z,22.35
2022-08-26T16:03:54.550Z,22.36
2022-08-26T16:08:59.010Z,22.26
2022-08-26T16:14:03.098Z,22.40
2022-08-26T16:19:07.919Z,22.43
2022-08-26T16:24:12.350Z,22.42
2022-08-26T16:29:18.191Z,22.50
2022-08-26T16:34:22.565Z,22.51
2022-08-26T16:39:26.046Z,22.61
2022-08-26T16:44:30.706Z,22.54
2022-08-26T16:49:34.605Z,22.53
2022-08-26T16:54:40.555Z,22.53
2022-08-26T16:59:46.674Z,22.47
2022-08-26T17:04:50.519Z,22.38
2022-08-26T17:09:53.991Z,22.29
2022-08-26T17:14:58.388Z,22.19
2022-08-26T17:20:06.321Z,22.03
2022-08-26T17:25:17.375Z,21.88
2022-08-26T17:30:22.056Z,21.69
2022-08-26T17:35:25.593Z,21.39
2022-08-26T17:40:30.991Z,21.23
2022-08-26T17:45:34.248Z,21.09
2022-08-26T17:50:40.182Z,20.83
2022-08-26T17:55:45.254Z,20.63
2022-08-26T18:00:52.844Z,20.38
2022-08-26T18:05:56.305Z,20.15
2022-08-26T18:10:59.565Z,19.99
2022-08-26T18:16:06.100Z,19.79
2022-08-26T18:21:27.469Z,19.67
2022-08-26T18:26:37.357Z,19.53
2022-08-26T18:31:41.050Z,19.52
2022-08-26T18:36:44.285Z,19.44
2022-08-26T18:41:50.818Z,19.42
2022-08-26T18:46:54.533Z,19.37
2022-08-26T18:51:58.272Z,19.33
2022-08-26T18:57:03.057Z,19.40
2022-08-26T19:02:06.368Z,19.42
2022-08-26T19:07:11.116Z,19.33
2022-08-26T19:12:15.236Z,19.26
2022-08-26T19:17:19.333Z,19.27
2022-08-26T19:22:26.246Z,18.98
2022-08-26T19:27:30.408Z,18.86
2022-08-26T19:32:33.943Z,18.63
2022-08-26T19:37:37.698Z,18.42
2022-08-26T19:42:40.679Z,18.33
2022-08-26T19:47:44.194Z,18.26
2022-08-26T19:52:48.178Z,18.06
2022-08-26T19:57:54.768Z,17.94
2022-08-26T20:02:59.464Z,17.81
2022-08-26T20:08:03.727Z,17.70
2022-08-26T20:13:06.879Z,17.62
2022-08-26T20:18:30.541Z,17.53
2022-08-26T20:23:33.653Z,17.43
2022-08-26T20:28:37.095Z,17.29
2022-08-26T20:33:46.372Z,17.26
2022-08-26T20:38:50.699Z,17.24
2022-08-26T20:43:54.381Z,17.22
2022-08-26T20:48:58.824Z,17.03
2022-08-26T20:54:02.438Z,17.07
2022-08-26T20:59:07.807Z,17.02
2022-08-26T21:04:16.292Z,17.02
2022-08-26T21:09:19.801Z,17.02
2022-08-26T21:14:25.867Z,17.00
2022-08-26T21:19:29.251Z,16.94
2022-08-26T21:24:32.917Z,16.92
2022-08-26T21:29:38.029Z,16.77
2022-08-26T21:34:41.134Z,16.75
2022-08-26T21:39:44.927Z,16.72
2022-08-26T21:44:48.972Z,16.69
2022-08-26T21:49:56.357Z,16.71
2022-08-26T21:55:01.375Z,16.69
2022-08-26T22:00:09.001Z,16.65
2022-08-26T22:05:12.352Z,16.69
2022-08-26T22:10:16.599Z,16.72
2022-08-26T22:15:23.213Z,16.62
2022-08-26T22:20:27.497Z,16.66
2022-08-26T22:25:31.452Z,16.65
2022-08-26T22:30:35.613Z,16.62
2022-08-26T22:35:41.185Z,16.56
2022-08-26T22:40:51.052Z,16.52
2022-08-26T22:45:55.406Z,16.54
2022-08-26T22:51:05.522Z,16.63
2022-08-26T22:56:09.529Z,16.78
2022-08-26T23:01:12.969Z,17.13
2022-08-26T23:06:16.577Z,17.40
2022-08-26T23:11:19.843Z,17.67
2022-08-26T23:16:23.296Z,17.86
2022-08-26T23:21:26.805Z,17.89
2022-08-26T23:26:29.967Z,18.06
2022-08-26T23:31:33.648Z,18.04
2022-08-26T23:36:37.108Z,17.85
2022-08-26T23:41:40.847Z,17.53
2022-08-26T23:46:43.981Z,17.34
2022-08-26T23:52:05.845Z,17.26
2022-08-26T23:57:10.380Z,17.08
